createdAt,value
2018-07-07T00:02:25.986Z,99.92
2018-07-07T00:04:58.445Z,99.90
2018-07-07T00:07:30.863Z,99.43
2018-07-07T00:10:03.243Z,98.83
2018-07-07T00:12:35.610Z,98.98
2018-07-07T00:15:09.143Z,98.00
2018-07-07T00:17:41.901Z,97.83
2018-07-07T00:20:15.908Z,97.39
2018-07-07T00:22:48.554Z,96.99
2018-07-07T00:25:22.232Z,97.22
2018-07-07T00:27:54.498Z,97.85
2018-07-07T00:30:27.966Z,98.03
2018-07-07T00:33:01.012Z,98.32
2018-07-07T00:35:33.644Z,98.84
2018-07-07T00:38:07.194Z,99.39
2018-07-07T00:40:40.284Z,99.18
2018-07-07T00:43:12.910Z,99.10
2018-07-07T00:45:48.197Z,99.27
2018-07-07T00:48:20.398Z,99.06
2018-07-07T00:50:52.854Z,98.02
2018-07-07T00:53:28.216Z,97.91
2018-07-07T00:56:00.605Z,97.62
2018-07-07T00:58:33.036Z,98.60
2018-07-07T01:01:07.554Z,98.21
2018-07-07T01:03:39.955Z,98.43
2018-07-07T01:06:17.124Z,98.70
2018-07-07T01:08:49.390Z,99.48
2018-07-07T01:11:21.857Z,99.67
2018-07-07T01:13:54.982Z,99.34
2018-07-07T01:16:27.395Z,99.45
2018-07-07T01:18:59.827Z,99.88
2018-07-07T01:21:32.859Z,100.00
2018-07-07T01:24:05.494Z,100.00
2018-07-07T01:26:38.610Z,100.00
2018-07-07T01:29:12.150Z,100.00
2018-07-07T01:31:44.533Z,100.00
2018-07-07T01:34:16.808Z,100.00
2018-07-07T01:36:49.094Z,100.00
2018-07-07T01:39:21.297Z,100.00
2018-07-07T01:41:53.606Z,100.00
2018-07-07T01:44:25.937Z,100.00
2018-07-07T01:46:58.080Z,100.00
2018-07-07T01:49:31.839Z,100.00
2018-07-07T01:52:04.087Z,100.00
2018-07-07T01:54:36.382Z,100.00
2018-07-07T01:57:08.552Z,100.00
2018-07-07T01:59:40.774Z,100.00
2018-07-07T02:02:12.982Z,100.00
2018-07-07T02:04:45.421Z,100.00
2018-07-07T02:07:17.738Z,100.00
2018-07-07T02:09:49.857Z,100.00
2018-07-07T02:12:21.935Z,100.00
2018-07-07T02:14:54.040Z,100.00
2018-07-07T02:17:26.130Z,100.00
2018-07-07T02:19:58.268Z,100.00
2018-07-07T02:22:30.397Z,100.00
2018-07-07T02:25:02.553Z,100.00
2018-07-07T02:27:34.666Z,100.00
2018-07-07T02:30:06.804Z,100.00
2018-07-07T02:32:38.955Z,100.00
2018-07-07T02:35:11.090Z,100.00
2018-07-07T02:37:43.255Z,100.00
2018-07-07T02:40:15.411Z,100.00
2018-07-07T02:42:47.634Z,100.00
2018-07-07T02:45:19.750Z,100.00
2018-07-07T02:47:51.936Z,100.00
2018-07-07T02:50:24.114Z,100.00
2018-07-07T02:52:56.221Z,100.00
2018-07-07T02:55:28.396Z,100.00
2018-07-07T02:58:00.591Z,100.00
2018-07-07T03:00:32.733Z,100.00
2018-07-07T03:03:04.929Z,100.00
2018-07-07T03:05:37.067Z,100.00
2018-07-07T03:08:09.144Z,100.00
2018-07-07T03:10:41.342Z,100.00
2018-07-07T03:13:13.533Z,100.00
2018-07-07T03:15:45.608Z,100.00
2018-07-07T03:18:17.706Z,100.00
2018-07-07T03:20:49.840Z,100.00
2018-07-07T03:23:21.934Z,100.00
2018-07-07T03:25:54.097Z,100.00
2018-07-07T03:28:26.478Z,100.00
2018-07-07T03:30:58.555Z,100.00
2018-07-07T03:33:30.708Z,100.00
2018-07-07T03:36:02.859Z,100.00
2018-07-07T03:38:35.051Z,100.00
2018-07-07T03:41:07.130Z,100.00
2018-07-07T03:43:39.548Z,100.00
2018-07-07T03:46:11.728Z,100.00
2018-07-07T03:48:43.793Z,100.00
2018-07-07T03:51:15.871Z,100.00
2018-07-07T03:53:48.044Z,100.00
2018-07-07T03:56:21.177Z,100.00
2018-07-07T03:58:53.353Z,100.00
2018-07-07T04:01:25.475Z,100.00
2018-07-07T04:03:57.614Z,100.00
2018-07-07T04:06:29.746Z,100.00
2018-07-07T04:09:01.888Z,100.00
2018-07-07T04:11:33.935Z,100.00
2018-07-07T04:14:06.075Z,100.00
2018-07-07T04:16:38.213Z,100.00
2018-07-07T04:19:10.288Z,99.91
2018-07-07T04:21:42.401Z,99.94
2018-07-07T04:24:14.552Z,98.31
2018-07-07T04:26:46.625Z,95.80
2018-07-07T04:29:18.711Z,94.71
2018-07-07T04:31:50.832Z,91.34
2018-07-07T04:34:22.928Z,88.80
2018-07-07T04:36:55.063Z,80.26
2018-07-07T04:39:27.161Z,74.76
2018-07-07T04:41:59.226Z,72.39
2018-07-07T04:44:31.267Z,69.58
2018-07-07T04:47:03.378Z,67.13
2018-07-07T04:49:35.432Z,63.59
2018-07-07T04:52:07.509Z,61.23
2018-07-07T04:54:39.574Z,58.90
2018-07-07T04:57:11.667Z,60.35
2018-07-07T04:59:43.758Z,62.25
2018-07-07T05:02:15.831Z,59.24
2018-07-07T05:04:47.993Z,55.92
2018-07-07T05:07:20.151Z,54.79
2018-07-07T05:09:52.256Z,53.73
2018-07-07T05:12:24.381Z,54.56
2018-07-07T05:14:56.566Z,53.83
2018-07-07T05:17:28.730Z,52.00
2018-07-07T05:20:00.886Z,52.71
2018-07-07T05:22:32.979Z,50.14
2018-07-07T05:25:05.171Z,48.68
2018-07-07T05:27:37.345Z,50.23
2018-07-07T05:30:09.443Z,49.17
2018-07-07T05:32:48.413Z,50.50
2018-07-07T05:35:20.539Z,49.61
2018-07-07T05:37:53.016Z,47.56
2018-07-07T05:40:25.197Z,49.94
2018-07-07T05:42:57.325Z,49.13
2018-07-07T05:45:29.459Z,47.08
2018-07-07T05:48:01.581Z,46.48
2018-07-07T05:50:33.749Z,44.10
2018-07-07T05:53:05.896Z,46.41
2018-07-07T05:55:38.008Z,42.57
2018-07-07T05:58:10.167Z,40.12
2018-07-07T06:00:42.376Z,41.18
2018-07-07T06:03:14.456Z,40.14
2018-07-07T06:05:46.615Z,41.53
2018-07-07T06:08:18.719Z,41.39
2018-07-07T06:10:50.857Z,41.90
2018-07-07T06:13:22.963Z,39.09
2018-07-07T06:15:55.036Z,40.50
2018-07-07T06:18:27.202Z,38.82
2018-07-07T06:20:59.312Z,38.19
2018-07-07T06:23:31.356Z,37.44
2018-07-07T06:26:03.475Z,36.05
2018-07-07T06:28:35.585Z,36.65
2018-07-07T06:31:07.980Z,36.42
2018-07-07T06:33:40.129Z,36.63
2018-07-07T06:36:12.209Z,38.00
2018-07-07T06:38:44.360Z,36.57
2018-07-07T06:41:16.461Z,36.22
2018-07-07T06:43:48.541Z,35.13
2018-07-07T06:46:20.694Z,37.16
2018-07-07T06:48:52.834Z,35.60
2018-07-07T06:51:25.008Z,34.45
2018-07-07T06:53:57.286Z,34.97
2018-07-07T06:56:29.232Z,36.43
2018-07-07T06:59:01.348Z,34.03
2018-07-07T07:01:33.456Z,32.93
2018-07-07T07:04:05.640Z,34.94
2018-07-07T07:06:37.764Z,32.34
2018-07-07T07:09:10.707Z,31.57
2018-07-07T07:11:42.867Z,31.30
2018-07-07T07:14:15.135Z,31.68
2018-07-07T07:16:47.296Z,33.45
2018-07-07T07:19:20.459Z,32.82
2018-07-07T07:21:52.621Z,32.10
2018-07-07T07:24:24.774Z,30.20
2018-07-07T07:26:56.869Z,29.25
2018-07-07T07:29:29.000Z,29.74
2018-07-07T07:32:01.173Z,29.72
2018-07-07T07:34:33.333Z,29.81
2018-07-07T07:37:05.513Z,28.11
2018-07-07T07:39:37.674Z,28.46
2018-07-07T07:42:09.887Z,31.77
2018-07-07T07:44:42.104Z,31.71
2018-07-07T07:47:14.243Z,28.47
2018-07-07T07:49:46.376Z,28.92
2018-07-07T07:52:18.511Z,29.40
2018-07-07T07:54:50.648Z,28.79
2018-07-07T07:57:23.872Z,25.12
2018-07-07T07:59:56.623Z,24.33
2018-07-07T08:02:28.754Z,27.28
2018-07-07T08:05:00.990Z,27.44
2018-07-07T08:07:33.228Z,28.09
2018-07-07T08:10:05.390Z,27.06
2018-07-07T08:12:37.563Z,26.65
2018-07-07T08:15:09.720Z,27.40
2018-07-07T08:17:41.857Z,26.87
2018-07-07T08:20:13.981Z,28.30
2018-07-07T08:22:46.168Z,28.82
2018-07-07T08:25:18.326Z,27.72
2018-07-07T08:27:50.562Z,27.65
2018-07-07T08:30:22.710Z,27.80
2018-07-07T08:32:54.895Z,30.34
2018-07-07T08:35:26.990Z,29.33
2018-07-07T08:37:59.222Z,27.87
2018-07-07T08:40:31.326Z,29.03
2018-07-07T08:43:03.452Z,28.94
2018-07-07T08:45:35.624Z,28.75
2018-07-07T08:48:07.802Z,28.72
2018-07-07T08:50:40.072Z,28.77
2018-07-07T08:53:12.584Z,28.50
2018-07-07T08:55:44.719Z,28.57
2018-07-07T08:58:16.874Z,28.27
2018-07-07T09:00:49.116Z,28.72
2018-07-07T09:03:21.505Z,26.34
2018-07-07T09:05:53.773Z,27.60
2018-07-07T09:08:26.631Z,26.18
2018-07-07T09:10:58.803Z,28.99
2018-07-07T09:13:30.988Z,29.55
2018-07-07T09:16:03.120Z,32.96
2018-07-07T09:18:35.329Z,35.60
2018-07-07T09:21:07.611Z,35.33
2018-07-07T09:23:39.748Z,33.03
2018-07-07T09:26:11.889Z,32.36
2018-07-07T09:28:44.045Z,31.20
2018-07-07T09:31:16.169Z,30.31
2018-07-07T09:33:50.300Z,30.48
2018-07-07T09:36:22.459Z,28.53
2018-07-07T09:38:54.707Z,28.79
2018-07-07T09:41:26.811Z,27.27
2018-07-07T09:43:58.984Z,27.59
2018-07-07T09:46:31.120Z,26.09
2018-07-07T09:49:03.428Z,27.10
2018-07-07T09:51:35.537Z,28.68
2018-07-07T09:54:07.666Z,28.63
2018-07-07T09:56:39.869Z,29.16
2018-07-07T09:59:12.081Z,28.73
2018-07-07T10:01:44.224Z,27.71
2018-07-07T10:04:16.471Z,26.49
2018-07-07T10:06:49.228Z,28.00
2018-07-07T10:09:21.306Z,29.60
2018-07-07T10:11:53.359Z,28.51
2018-07-07T10:14:25.586Z,26.18
2018-07-07T10:16:57.725Z,28.46
2018-07-07T10:19:29.866Z,30.01
2018-07-07T10:22:02.057Z,27.77
2018-07-07T10:24:34.189Z,28.05
2018-07-07T10:27:06.317Z,26.81
2018-07-07T10:29:38.502Z,26.51
2018-07-07T10:32:10.605Z,26.38
2018-07-07T10:34:42.643Z,27.02
2018-07-07T10:37:14.786Z,26.32
2018-07-07T10:39:46.923Z,27.20
2018-07-07T10:42:19.068Z,27.46
2018-07-07T10:44:51.512Z,28.33
2018-07-07T10:47:24.723Z,28.74
2018-07-07T10:49:56.750Z,27.10
2018-07-07T10:52:29.312Z,27.01
2018-07-07T10:55:01.563Z,26.63
2018-07-07T10:57:33.782Z,29.25
2018-07-07T11:00:06.394Z,27.74
2018-07-07T11:02:39.580Z,27.48
2018-07-07T11:05:11.780Z,28.46
2018-07-07T11:07:43.969Z,30.60
2018-07-07T11:10:16.156Z,29.07
2018-07-07T11:12:48.279Z,28.77
2018-07-07T11:15:20.495Z,28.19
2018-07-07T11:17:52.729Z,27.96
2018-07-07T11:20:24.929Z,27.63
2018-07-07T11:22:57.102Z,27.18
2018-07-07T11:25:29.284Z,25.90
2018-07-07T11:28:01.455Z,25.70
2018-07-07T11:30:33.595Z,26.41
2018-07-07T11:33:05.876Z,26.20
2018-07-07T11:35:38.050Z,24.89
2018-07-07T11:38:10.249Z,25.64
2018-07-07T11:40:42.423Z,25.12
2018-07-07T11:43:14.572Z,25.19
2018-07-07T11:45:46.834Z,25.25
2018-07-07T11:48:19.036Z,25.91
2018-07-07T11:50:51.257Z,24.30
2018-07-07T11:53:23.528Z,23.82
2018-07-07T11:55:55.721Z,23.20
2018-07-07T11:58:27.896Z,24.17
2018-07-07T12:01:00.201Z,25.38
2018-07-07T12:03:32.422Z,24.72
2018-07-07T12:06:04.611Z,24.79
2018-07-07T12:08:38.604Z,23.96
2018-07-07T12:11:10.829Z,25.59
2018-07-07T12:13:42.955Z,22.83
2018-07-07T12:16:15.693Z,22.79
2018-07-07T12:18:47.804Z,22.76
2018-07-07T12:21:20.079Z,21.63
2018-07-07T12:23:52.280Z,22.10
2018-07-07T12:26:24.415Z,21.95
2018-07-07T12:30:27.061Z,22.65
2018-07-07T12:32:59.243Z,23.68
2018-07-07T12:35:31.413Z,22.88
2018-07-07T12:38:03.667Z,23.84
2018-07-07T12:40:35.897Z,22.54
2018-07-07T12:43:07.987Z,23.68
2018-07-07T12:45:40.207Z,23.52
2018-07-07T12:48:12.397Z,23.74
2018-07-07T12:50:44.536Z,21.79
2018-07-07T12:53:16.643Z,22.23
2018-07-07T12:55:48.851Z,21.75
2018-07-07T12:58:21.040Z,23.15
2018-07-07T13:00:53.324Z,22.81
2018-07-07T13:03:25.482Z,22.85
2018-07-07T13:05:57.712Z,21.58
2018-07-07T13:08:29.977Z,21.07
2018-07-07T13:11:02.212Z,21.18
2018-07-07T13:13:34.454Z,21.68
2018-07-07T13:16:06.746Z,19.56
2018-07-07T13:18:38.886Z,21.02
2018-07-07T13:21:11.040Z,22.08
2018-07-07T13:23:43.231Z,21.48
2018-07-07T13:26:15.511Z,19.46
2018-07-07T13:28:47.659Z,20.96
2018-07-07T13:31:19.946Z,22.48
2018-07-07T13:33:52.101Z,23.66
2018-07-07T13:36:24.306Z,24.02
2018-07-07T13:38:56.498Z,20.48
2018-07-07T13:41:28.810Z,23.45
2018-07-07T13:44:00.990Z,22.45
2018-07-07T13:46:33.199Z,21.92
2018-07-07T13:49:05.479Z,21.80
2018-07-07T13:51:37.697Z,23.53
2018-07-07T13:54:09.953Z,23.39
2018-07-07T13:59:20.838Z,24.95
2018-07-07T14:01:52.986Z,24.45
2018-07-07T14:04:25.154Z,25.81
2018-07-07T14:06:57.324Z,23.76
2018-07-07T14:09:29.497Z,23.19
2018-07-07T14:12:01.739Z,24.13
2018-07-07T14:14:33.901Z,22.50
2018-07-07T14:17:06.158Z,22.02
2018-07-07T14:19:38.341Z,20.38
2018-07-07T14:22:10.820Z,20.93
2018-07-07T14:24:43.010Z,21.79
2018-07-07T14:27:15.194Z,22.24
2018-07-07T14:29:47.381Z,21.30
2018-07-07T14:32:19.604Z,21.63
2018-07-07T14:34:51.775Z,21.03
2018-07-07T14:37:23.914Z,21.66
2018-07-07T14:40:00.202Z,23.01
2018-07-07T14:42:48.695Z,20.73
2018-07-07T14:45:25.898Z,21.15
2018-07-07T14:48:03.286Z,20.47
2018-07-07T14:50:35.445Z,20.46
2018-07-07T14:53:07.629Z,22.78
2018-07-07T14:55:39.801Z,21.50
2018-07-07T14:58:12.049Z,21.29
2018-07-07T15:00:44.200Z,21.13
2018-07-07T15:03:16.338Z,20.77
2018-07-07T15:05:48.590Z,19.67
2018-07-07T15:08:20.873Z,20.17
2018-07-07T15:13:25.599Z,22.62
2018-07-07T15:15:57.648Z,23.15
2018-07-07T15:18:30.039Z,23.75
2018-07-07T15:21:02.298Z,23.42
2018-07-07T15:23:34.288Z,22.91
2018-07-07T15:26:06.259Z,21.37
2018-07-07T15:28:38.276Z,21.32
2018-07-07T15:31:10.244Z,19.54
2018-07-07T15:33:42.243Z,20.02
2018-07-07T15:36:14.228Z,20.99
2018-07-07T15:38:46.200Z,22.14
2018-07-07T15:41:18.196Z,20.09
2018-07-07T15:43:50.204Z,20.42
2018-07-07T15:46:22.211Z,19.17
2018-07-07T15:48:54.255Z,20.38
2018-07-07T15:51:26.213Z,18.10
2018-07-07T15:53:58.155Z,18.95
2018-07-07T15:56:30.125Z,19.44
2018-07-07T15:59:02.167Z,20.32
2018-07-07T16:01:34.172Z,20.02
2018-07-07T16:04:06.324Z,22.55
2018-07-07T16:06:38.338Z,20.84
2018-07-07T16:09:10.372Z,19.70
2018-07-07T16:11:42.466Z,18.52
2018-07-07T16:14:14.535Z,19.31
2018-07-07T16:16:46.542Z,20.55
2018-07-07T16:19:18.569Z,20.55
2018-07-07T16:21:50.593Z,20.71
2018-07-07T16:24:22.624Z,21.37
2018-07-07T16:26:54.686Z,20.66
2018-07-07T16:29:26.732Z,20.88
2018-07-07T16:31:58.740Z,21.51
2018-07-07T16:34:30.765Z,22.03
2018-07-07T16:37:02.785Z,22.54
2018-07-07T16:39:34.811Z,20.75
2018-07-07T16:42:06.826Z,22.22
2018-07-07T16:44:39.239Z,22.82
2018-07-07T16:47:11.396Z,20.88
2018-07-07T16:49:43.479Z,22.88
2018-07-07T16:52:15.565Z,23.27
2018-07-07T16:54:47.794Z,23.77
2018-07-07T16:57:19.838Z,25.30
2018-07-07T16:59:52.218Z,25.45
2018-07-07T17:02:24.226Z,25.78
2018-07-07T17:04:56.270Z,25.53
2018-07-07T17:07:28.397Z,25.73
2018-07-07T17:10:00.474Z,27.55
2018-07-07T17:12:32.511Z,25.98
2018-07-07T17:15:04.524Z,28.07
2018-07-07T17:17:36.571Z,27.05
2018-07-07T17:20:08.634Z,27.15
2018-07-07T17:22:40.736Z,28.54
2018-07-07T17:25:12.802Z,28.33
2018-07-07T17:27:44.827Z,28.92
2018-07-07T17:30:17.495Z,28.48
2018-07-07T17:32:49.673Z,29.52
2018-07-07T17:35:21.722Z,29.54
2018-07-07T17:37:53.855Z,30.23
2018-07-07T17:40:25.902Z,29.14
2018-07-07T17:42:58.004Z,28.69
2018-07-07T17:45:30.355Z,29.66
2018-07-07T17:48:02.407Z,29.57
2018-07-07T17:50:34.476Z,30.06
2018-07-07T17:53:06.522Z,30.11
2018-07-07T17:55:38.598Z,31.35
2018-07-07T17:58:10.645Z,30.55
2018-07-07T18:00:43.061Z,30.92
2018-07-07T18:03:15.142Z,31.60
2018-07-07T18:05:47.163Z,31.55
2018-07-07T18:08:19.171Z,31.26
2018-07-07T18:10:51.315Z,32.05
2018-07-07T18:13:23.340Z,32.49
2018-07-07T18:15:55.358Z,32.40
2018-07-07T18:18:27.386Z,33.34
2018-07-07T18:20:59.436Z,33.21
2018-07-07T18:23:31.492Z,33.33
2018-07-07T18:26:03.523Z,34.58
2018-07-07T18:28:35.518Z,34.06
2018-07-07T18:31:07.565Z,34.47
2018-07-07T18:33:39.665Z,34.43
2018-07-07T18:36:11.687Z,35.99
2018-07-07T18:38:43.755Z,35.46
2018-07-07T18:41:16.062Z,34.80
2018-07-07T18:43:48.281Z,36.15
2018-07-07T18:46:20.445Z,36.59
2018-07-07T18:48:52.680Z,36.62
2018-07-07T18:51:24.858Z,37.01
2018-07-07T18:53:57.020Z,36.79
2018-07-07T18:56:29.279Z,37.32
2018-07-07T18:59:01.453Z,37.65
2018-07-07T19:01:33.617Z,38.09
2018-07-07T19:04:05.804Z,38.43
2018-07-07T19:06:37.964Z,38.99
2018-07-07T19:09:10.067Z,40.14
2018-07-07T19:11:42.259Z,39.51
2018-07-07T19:14:14.476Z,39.89
2018-07-07T19:16:46.576Z,40.63
2018-07-07T19:20:28.151Z,41.20
2018-07-07T19:23:05.790Z,41.97
2018-07-07T19:25:43.541Z,42.92
2018-07-07T19:28:15.740Z,43.35
2018-07-07T19:30:47.821Z,43.42
2018-07-07T19:33:25.575Z,43.60
2018-07-07T19:36:03.286Z,44.36
2018-07-07T19:38:35.417Z,44.32
2018-07-07T19:41:07.517Z,44.47
2018-07-07T19:43:39.682Z,44.98
2018-07-07T19:46:11.919Z,45.52
2018-07-07T19:48:44.009Z,45.49
2018-07-07T19:51:16.180Z,45.68
2018-07-07T19:53:48.489Z,46.27
2018-07-07T19:56:20.509Z,46.30
2018-07-07T19:58:52.598Z,46.70
2018-07-07T20:01:24.741Z,46.63
2018-07-07T20:03:56.939Z,46.74
2018-07-07T20:06:29.107Z,47.21
2018-07-07T20:09:01.381Z,47.49
2018-07-07T20:11:33.548Z,48.34
2018-07-07T20:14:05.723Z,49.18
2018-07-07T20:16:49.250Z,49.11
2018-07-07T20:19:22.535Z,49.77
2018-07-07T20:21:56.226Z,49.82
2018-07-07T20:24:31.566Z,51.12
2018-07-07T20:27:09.211Z,50.88
2018-07-07T20:29:41.484Z,51.36
2018-07-07T20:32:19.437Z,52.16
2018-07-07T20:34:51.633Z,52.88
2018-07-07T20:37:23.816Z,53.76
2018-07-07T20:39:56.018Z,55.02
2018-07-07T20:42:28.244Z,56.02
2018-07-07T20:45:00.403Z,57.63
2018-07-07T20:47:32.605Z,57.79
2018-07-07T20:50:04.840Z,57.07
2018-07-07T20:52:36.976Z,57.31
2018-07-07T20:55:09.177Z,57.73
2018-07-07T20:57:41.405Z,58.61
2018-07-07T21:00:15.111Z,59.77
2018-07-07T21:02:47.442Z,57.97
2018-07-07T21:05:19.622Z,59.23
2018-07-07T21:07:51.826Z,59.79
2018-07-07T21:10:24.222Z,61.21
2018-07-07T21:12:58.450Z,61.21
2018-07-07T21:15:30.617Z,61.79
2018-07-07T21:18:02.874Z,61.70
2018-07-07T21:20:35.112Z,62.85
2018-07-07T21:23:08.336Z,62.70
2018-07-07T21:25:40.599Z,61.71
2018-07-07T21:28:12.764Z,62.36
2018-07-07T21:30:45.020Z,60.96
2018-07-07T21:33:17.136Z,61.61
2018-07-07T21:35:49.375Z,61.70
2018-07-07T21:38:21.529Z,61.08
2018-07-07T21:40:53.755Z,61.46
2018-07-07T21:43:26.054Z,62.38
2018-07-07T21:45:58.305Z,62.53
2018-07-07T21:48:30.517Z,62.96
2018-07-07T21:51:02.780Z,62.52
2018-07-07T21:53:35.006Z,63.63
2018-07-07T21:56:07.261Z,63.54
2018-07-07T21:58:39.491Z,63.83
2018-07-07T22:01:24.501Z,63.72
2018-07-07T22:04:03.552Z,64.01
2018-07-07T22:06:41.952Z,63.61
2018-07-07T22:09:14.113Z,64.01
2018-07-07T22:11:46.256Z,63.39
2018-07-07T22:14:18.412Z,65.05
2018-07-07T22:16:51.045Z,64.65
2018-07-07T22:19:23.156Z,64.46
2018-07-07T22:21:59.073Z,64.87
2018-07-07T22:24:31.206Z,64.60
2018-07-07T22:27:07.303Z,65.05
2018-07-07T22:29:39.432Z,64.92
2018-07-07T22:32:17.290Z,66.40
2018-07-07T22:34:49.726Z,68.15
2018-07-07T22:37:21.884Z,68.21
2018-07-07T22:39:54.017Z,68.35
2018-07-07T22:42:26.153Z,69.14
2018-07-07T22:44:58.245Z,69.66
2018-07-07T22:47:30.373Z,69.53
2018-07-07T22:50:02.497Z,70.69
2018-07-07T22:52:34.647Z,71.01
2018-07-07T22:55:06.816Z,71.35
2018-07-07T22:57:39.011Z,71.43
2018-07-07T23:00:11.243Z,71.92
2018-07-07T23:02:43.393Z,72.36
2018-07-07T23:05:15.614Z,71.54
2018-07-07T23:07:47.853Z,71.90
2018-07-07T23:10:20.033Z,72.75
2018-07-07T23:12:52.194Z,71.29
2018-07-07T23:15:24.468Z,72.30
2018-07-07T23:17:56.551Z,72.18
2018-07-07T23:20:28.795Z,73.34
2018-07-07T23:23:01.055Z,73.31
2018-07-07T23:25:33.312Z,74.59
2018-07-07T23:28:05.521Z,75.83
2018-07-07T23:30:37.741Z,76.29
2018-07-07T23:33:09.994Z,77.76
2018-07-07T23:35:42.176Z,77.45
2018-07-07T23:38:14.332Z,78.17
2018-07-07T23:40:46.512Z,78.44
2018-07-07T23:43:18.912Z,77.41
2018-07-07T23:45:51.052Z,76.53
2018-07-07T23:48:23.200Z,73.88
2018-07-07T23:50:55.384Z,74.80
2018-07-07T23:53:27.590Z,74.42
2018-07-07T23:55:59.822Z,74.57
2018-07-07T23:58:32.094Z,74.54
